createdAt,value
2023-02-02T00:00:34.178Z,3.80
2023-02-02T00:03:04.626Z,3.72
2023-02-02T00:05:37.009Z,3.60
2023-02-02T00:08:09.585Z,3.72
2023-02-02T00:10:37.359Z,3.75
2023-02-02T00:13:04.964Z,3.30
2023-02-02T00:15:32.775Z,3.47
2023-02-02T00:18:03.091Z,3.17
2023-02-02T00:20:34.810Z,3.08
2023-02-02T00:23:05.961Z,3.42
2023-02-02T00:25:33.811Z,3.97
2023-02-02T00:28:01.511Z,4.03
2023-02-02T00:30:30.429Z,4.40
2023-02-02T00:32:58.279Z,3.20
2023-02-02T00:35:26.439Z,3.40
2023-02-02T00:37:54.155Z,4.17
2023-02-02T00:40:24.444Z,3.70
2023-02-02T00:42:54.759Z,3.80
2023-02-02T00:45:22.804Z,3.22
2023-02-02T00:47:50.621Z,3.20
2023-02-02T00:50:21.613Z,2.77
2023-02-02T00:52:49.972Z,4.03
2023-02-02T00:55:18.092Z,3.45
2023-02-02T00:57:47.090Z,2.50
2023-02-02T01:00:18.920Z,2.85
2023-02-02T01:02:56.305Z,3.00
2023-02-02T01:05:24.505Z,3.10
2023-02-02T01:07:52.354Z,2.75
2023-02-02T01:10:22.308Z,2.83
2023-02-02T01:12:51.056Z,3.60
2023-02-02T01:15:19.199Z,2.97
2023-02-02T01:17:49.215Z,2.60
2023-02-02T01:20:21.045Z,2.55
2023-02-02T01:22:52.741Z,3.42
2023-02-02T01:25:28.257Z,2.85
2023-02-02T01:27:57.324Z,2.57
2023-02-02T01:30:32.344Z,2.65
2023-02-02T01:33:02.302Z,2.70
2023-02-02T01:35:39.469Z,2.20
2023-02-02T01:38:12.489Z,2.70
2023-02-02T01:40:52.820Z,2.27
2023-02-02T01:43:50.672Z,2.30
2023-02-02T01:46:21.787Z,2.30
2023-02-02T01:48:58.729Z,2.47
2023-02-02T01:51:53.757Z,2.83
2023-02-02T01:54:27.080Z,2.20
2023-02-02T01:57:02.974Z,2.35
2023-02-02T01:59:31.381Z,2.35
2023-02-02T02:02:00.041Z,2.00
2023-02-02T02:04:31.062Z,2.17
2023-02-02T02:07:01.126Z,2.20
2023-02-02T02:09:29.253Z,1.92
2023-02-02T02:11:57.926Z,2.42
2023-02-02T02:14:46.987Z,2.58
2023-02-02T02:18:03.192Z,2.40
2023-02-02T02:25:05.927Z,2.13
2023-02-02T02:28:01.059Z,2.33
2023-02-02T02:30:53.804Z,1.75
2023-02-02T02:33:28.664Z,2.20
2023-02-02T02:36:08.779Z,2.00
2023-02-02T02:39:12.027Z,1.98
2023-02-02T02:41:45.507Z,1.98
2023-02-02T02:44:16.613Z,1.83
2023-02-02T02:46:45.727Z,1.92
2023-02-02T02:49:17.293Z,2.50
2023-02-02T02:51:53.568Z,2.10
2023-02-02T02:54:38.311Z,2.00
2023-02-02T02:57:42.716Z,2.10
2023-02-02T03:00:47.512Z,2.10
2023-02-02T03:03:44.710Z,1.90
2023-02-02T03:06:22.934Z,2.00
2023-02-02T03:09:04.933Z,1.58
2023-02-02T03:11:35.741Z,1.70
2023-02-02T03:14:04.164Z,1.85
2023-02-02T03:16:31.788Z,2.17
2023-02-02T03:18:59.567Z,1.73
2023-02-02T03:21:30.021Z,1.98
2023-02-02T03:24:00.114Z,1.48
2023-02-02T03:26:32.764Z,1.92
2023-02-02T03:29:03.284Z,1.73
2023-02-02T03:31:33.555Z,1.55
2023-02-02T03:34:01.424Z,1.70
2023-02-02T03:36:29.197Z,1.98
2023-02-02T03:38:57.009Z,1.67
2023-02-02T03:41:27.414Z,2.27
2023-02-02T03:43:55.275Z,1.60
2023-02-02T03:46:24.087Z,1.88
2023-02-02T03:48:51.776Z,1.90
2023-02-02T03:51:23.572Z,1.90
2023-02-02T03:53:53.667Z,2.00
2023-02-02T03:56:21.370Z,2.05
2023-02-02T03:58:48.969Z,2.05
2023-02-02T04:01:16.647Z,1.90
2023-02-02T04:03:46.498Z,2.13
2023-02-02T04:06:14.064Z,1.50
2023-02-02T04:08:41.807Z,1.40
2023-02-02T04:11:13.247Z,1.40
2023-02-02T04:13:43.496Z,1.70
2023-02-02T04:16:17.611Z,1.77
2023-02-02T04:18:45.396Z,1.83
2023-02-02T04:21:13.151Z,1.77
2023-02-02T04:23:40.793Z,1.48
2023-02-02T04:26:08.791Z,1.70
2023-02-02T04:28:36.774Z,1.90
2023-02-02T04:31:04.821Z,1.87
2023-02-02T04:33:34.458Z,1.77
2023-02-02T04:36:02.477Z,1.58
2023-02-02T04:38:34.724Z,3.50
2023-02-02T04:41:08.209Z,2.80
2023-02-02T04:43:37.213Z,3.07
2023-02-02T04:46:05.191Z,2.58
2023-02-02T04:48:36.126Z,2.05
2023-02-02T04:51:06.944Z,1.88
2023-02-02T04:53:34.754Z,2.00
2023-02-02T04:56:10.417Z,1.63
2023-02-02T04:58:38.354Z,2.42
2023-02-02T05:01:16.423Z,5.15
2023-02-02T05:03:44.551Z,3.13
2023-02-02T05:06:14.133Z,2.05
2023-02-02T05:08:44.348Z,2.30
2023-02-02T05:11:23.782Z,3.58
2023-02-02T05:14:01.575Z,3.05
2023-02-02T05:16:29.424Z,2.33
2023-02-02T05:18:59.711Z,2.25
2023-02-02T05:21:29.909Z,2.33
2023-02-02T05:23:58.361Z,2.30
2023-02-02T05:26:27.807Z,2.10
2023-02-02T05:28:58.833Z,2.50
2023-02-02T05:31:31.575Z,3.13
2023-02-02T05:34:03.377Z,2.90
2023-02-02T05:36:31.254Z,3.47
2023-02-02T05:38:58.987Z,3.10
2023-02-02T05:41:26.602Z,3.13
2023-02-02T05:43:54.539Z,2.85
2023-02-02T05:46:22.187Z,2.70
2023-02-02T05:48:52.092Z,3.22
2023-02-02T05:54:14.447Z,3.05
2023-02-02T05:56:44.548Z,3.38
2023-02-02T05:59:12.461Z,3.00
2023-02-02T06:01:40.114Z,3.47
2023-02-02T06:04:07.879Z,2.97
2023-02-02T06:06:39.381Z,3.42
2023-02-02T06:09:10.194Z,2.90
2023-02-02T06:11:39.620Z,4.10
2023-02-02T06:14:08.048Z,8.50
2023-02-02T06:16:35.929Z,5.30
2023-02-02T06:19:04.014Z,5.75
2023-02-02T06:21:31.932Z,4.70
2023-02-02T06:24:00.381Z,4.87
2023-02-02T06:26:28.341Z,4.40
2023-02-02T06:28:56.235Z,4.85
2023-02-02T06:31:24.170Z,5.88
2023-02-02T06:33:57.611Z,5.60
2023-02-02T06:36:27.266Z,8.70
2023-02-02T06:38:56.849Z,8.00
2023-02-02T06:41:25.418Z,4.90
2023-02-02T06:43:53.105Z,7.15
2023-02-02T06:46:20.735Z,5.80
2023-02-02T06:48:48.717Z,6.50
2023-02-02T06:51:16.452Z,6.35
2023-02-02T06:53:43.981Z,7.28
2023-02-02T06:56:14.105Z,5.20
2023-02-02T06:58:42.064Z,6.07
2023-02-02T07:01:12.484Z,5.80
2023-02-02T07:03:41.285Z,5.30
2023-02-02T07:06:17.825Z,5.40
2023-02-02T07:08:51.619Z,7.00
2023-02-02T07:11:33.730Z,5.90
2023-02-02T07:14:02.982Z,6.10
2023-02-02T07:16:31.300Z,7.18
2023-02-02T07:18:59.992Z,6.32
2023-02-02T07:21:36.396Z,5.30
2023-02-02T07:24:05.808Z,6.03
2023-02-02T07:26:36.225Z,5.90
2023-02-02T07:29:04.868Z,5.70
2023-02-02T07:31:35.838Z,6.18
2023-02-02T07:34:04.321Z,5.95
2023-02-02T07:36:32.351Z,5.70
2023-02-02T07:39:02.560Z,5.33
2023-02-02T07:41:31.862Z,6.15
2023-02-02T07:44:00.461Z,5.95
2023-02-02T07:46:28.430Z,6.43
2023-02-02T07:48:56.613Z,6.80
2023-02-02T07:51:25.587Z,5.93
2023-02-02T07:53:54.635Z,5.80
2023-02-02T07:56:25.108Z,5.60
2023-02-02T07:58:54.672Z,4.85
2023-02-02T08:01:23.646Z,5.13
2023-02-02T08:03:51.263Z,4.63
2023-02-02T08:06:20.612Z,5.10
2023-02-02T08:08:49.321Z,4.95
2023-02-02T08:11:20.210Z,4.25
2023-02-02T08:13:53.895Z,4.22
2023-02-02T08:16:22.439Z,3.90
2023-02-02T08:18:50.381Z,3.95
2023-02-02T08:21:19.021Z,4.78
2023-02-02T08:23:47.346Z,4.65
2023-02-02T08:26:20.398Z,3.05
2023-02-02T08:28:51.693Z,6.60
2023-02-02T08:31:29.609Z,6.43
2023-02-02T08:34:00.378Z,3.10
2023-02-02T08:36:31.437Z,3.97
2023-02-02T08:39:03.905Z,3.08
2023-02-02T08:41:32.732Z,3.90
2023-02-02T08:44:01.639Z,4.18
2023-02-02T08:46:29.422Z,3.10
2023-02-02T08:48:57.155Z,4.05
2023-02-02T08:51:25.012Z,6.00
2023-02-02T08:53:52.687Z,4.73
2023-02-02T08:56:22.038Z,4.72
2023-02-02T08:58:53.459Z,4.47
2023-02-02T09:01:26.764Z,5.85
2023-02-02T09:04:08.094Z,3.35
2023-02-02T09:06:38.234Z,3.23
2023-02-02T09:09:08.040Z,3.42
2023-02-02T09:11:36.626Z,3.70
2023-02-02T09:14:06.843Z,2.80
2023-02-02T09:16:36.948Z,3.20
2023-02-02T09:19:05.694Z,3.20
2023-02-02T09:21:37.574Z,4.55
2023-02-02T09:24:27.524Z,3.15
2023-02-02T09:27:03.069Z,3.75
2023-02-02T09:29:34.276Z,4.57
2023-02-02T09:36:33.386Z,5.10
2023-02-02T09:39:32.395Z,5.30
2023-02-02T10:16:56.063Z,4.63
2023-02-02T10:19:34.933Z,4.88
2023-02-02T10:30:10.262Z,4.67
2023-02-02T10:37:40.430Z,4.93
2023-02-02T10:40:39.764Z,4.50
2023-02-02T10:44:16.208Z,4.38
2023-02-02T10:47:53.543Z,4.10
2023-02-02T11:09:49.925Z,3.78
2023-02-02T11:12:54.046Z,4.43
2023-02-02T11:15:51.573Z,6.00
2023-02-02T11:18:34.153Z,4.28
2023-02-02T11:21:37.752Z,4.57
2023-02-02T11:27:43.917Z,3.05
2023-02-02T11:30:43.629Z,3.45
2023-02-02T11:33:29.889Z,2.78
2023-02-02T11:36:31.945Z,3.50
2023-02-02T11:39:27.968Z,3.72
2023-02-02T11:42:21.695Z,3.60
2023-02-02T11:45:29.322Z,4.03
2023-02-02T11:48:10.366Z,4.82
2023-02-02T11:50:41.858Z,3.50
2023-02-02T11:53:35.332Z,3.60
2023-02-02T11:56:37.038Z,4.30
2023-02-02T11:59:30.799Z,4.38
2023-02-02T12:02:24.567Z,3.83
2023-02-02T12:05:20.232Z,3.95
2023-02-02T12:08:03.393Z,4.23
2023-02-02T12:10:53.140Z,3.78
2023-02-02T12:13:50.838Z,2.90
2023-02-02T12:16:36.117Z,2.42
2023-02-02T12:19:23.342Z,2.03
2023-02-02T12:22:24.275Z,3.57
2023-02-02T12:25:37.515Z,2.90
2023-02-02T12:28:58.974Z,2.72
2023-02-02T12:31:48.234Z,3.20
2023-02-02T12:34:37.106Z,3.50
2023-02-02T12:37:35.618Z,3.40
2023-02-02T12:40:36.348Z,2.80
2023-02-02T12:43:26.543Z,4.30
2023-02-02T12:46:19.747Z,2.13
2023-02-02T12:49:03.684Z,2.40
2023-02-02T12:52:17.171Z,2.63
2023-02-02T12:55:40.485Z,1.93
2023-02-02T12:58:48.948Z,3.63
2023-02-02T13:01:46.561Z,2.65
2023-02-02T13:04:46.927Z,1.60
2023-02-02T13:07:28.180Z,1.60
2023-02-02T13:10:26.827Z,1.53
2023-02-02T13:13:12.032Z,1.13
2023-02-02T13:16:05.724Z,1.50
2023-02-02T13:19:08.628Z,1.90
2023-02-02T13:21:39.360Z,2.10
2023-02-02T13:24:19.705Z,1.30
2023-02-02T13:26:48.937Z,1.93
2023-02-02T13:29:30.480Z,1.33
2023-02-02T13:32:16.616Z,1.83
2023-02-02T13:35:18.454Z,2.15
2023-02-02T13:38:02.168Z,1.50
2023-02-02T13:40:45.184Z,1.47
2023-02-02T13:43:29.448Z,1.30
2023-02-02T13:46:25.922Z,1.42
2023-02-02T13:48:54.751Z,1.27
2023-02-02T13:51:46.616Z,1.45
2023-02-02T13:55:08.410Z,1.93
2023-02-02T14:00:43.003Z,1.30
2023-02-02T14:04:06.767Z,1.60
2023-02-02T14:09:35.359Z,2.00
2023-02-02T14:12:09.918Z,1.85
2023-02-02T14:14:41.145Z,1.13
2023-02-02T14:17:31.549Z,1.48
2023-02-02T14:20:01.551Z,1.45
2023-02-02T14:22:44.725Z,2.93
2023-02-02T14:25:47.932Z,1.75
2023-02-02T14:28:43.581Z,2.53
2023-02-02T14:31:41.579Z,3.00
2023-02-02T14:34:26.843Z,1.38
2023-02-02T14:37:21.970Z,1.70
2023-02-02T14:40:10.653Z,1.50
2023-02-02T14:43:34.822Z,1.73
2023-02-02T14:46:14.600Z,2.13
2023-02-02T14:49:13.652Z,1.73
2023-02-02T14:51:54.663Z,2.10
2023-02-02T14:54:26.625Z,3.95
2023-02-02T14:57:02.927Z,1.92
2023-02-02T14:59:40.603Z,2.17
2023-02-02T15:02:17.011Z,2.25
2023-02-02T15:04:48.068Z,2.07
2023-02-02T15:07:24.691Z,1.63
2023-02-02T15:09:56.774Z,2.63
2023-02-02T15:12:28.586Z,2.00
2023-02-02T15:15:25.689Z,3.45
2023-02-02T15:18:21.627Z,2.10
2023-02-02T15:20:51.278Z,2.10
2023-02-02T15:23:31.646Z,3.28
2023-02-02T15:26:13.850Z,3.08
2023-02-02T15:28:44.648Z,1.98
2023-02-02T15:31:23.017Z,2.22
2023-02-02T15:33:57.595Z,2.80
2023-02-02T15:36:38.745Z,2.58
2023-02-02T15:39:20.345Z,2.55
2023-02-02T15:41:50.219Z,1.90
2023-02-02T15:44:30.028Z,1.92
2023-02-02T15:46:58.902Z,2.80
2023-02-02T15:49:35.111Z,2.60
2023-02-02T15:52:17.396Z,2.20
2023-02-02T15:54:54.143Z,3.50
2023-02-02T15:57:29.583Z,2.90
2023-02-02T16:00:01.113Z,1.90
2023-02-02T16:02:40.441Z,3.92
2023-02-02T16:05:48.322Z,3.15
2023-02-02T16:08:26.379Z,4.15
2023-02-02T16:11:13.574Z,2.10
2023-02-02T16:13:44.469Z,3.50
2023-02-02T16:16:34.213Z,2.30
2023-02-02T16:19:19.947Z,2.38
2023-02-02T16:22:02.176Z,2.83
2023-02-02T16:24:36.367Z,2.45
2023-02-02T16:27:12.427Z,2.30
2023-02-02T16:29:41.904Z,2.53
2023-02-02T16:32:29.753Z,5.07
2023-02-02T16:34:58.243Z,2.47
2023-02-02T16:37:29.810Z,2.20
2023-02-02T16:40:22.853Z,1.93
2023-02-02T16:43:27.489Z,2.08
2023-02-02T16:46:02.464Z,2.63
2023-02-02T16:48:41.274Z,2.47
2023-02-02T16:51:18.131Z,3.03
2023-02-02T16:53:48.790Z,5.17
2023-02-02T16:56:35.599Z,3.00
2023-02-02T16:59:22.943Z,2.42
2023-02-02T17:01:59.990Z,3.13
2023-02-02T17:04:39.253Z,2.90
2023-02-02T17:07:14.653Z,3.17
2023-02-02T17:09:49.033Z,4.03
2023-02-02T17:12:33.249Z,4.53
2023-02-02T17:15:34.348Z,4.97
2023-02-02T17:18:04.480Z,6.05
2023-02-02T17:20:34.917Z,6.43
2023-02-02T17:23:10.045Z,6.60
2023-02-02T17:25:42.214Z,6.30
2023-02-02T17:28:16.971Z,8.02
2023-02-02T17:30:47.701Z,6.55
2023-02-02T17:33:17.525Z,5.95
2023-02-02T17:35:55.033Z,6.57
2023-02-02T17:38:32.867Z,6.60
2023-02-02T17:41:02.691Z,6.10
2023-02-02T17:43:31.709Z,6.50
2023-02-02T17:45:59.780Z,5.78
2023-02-02T17:48:27.407Z,6.00
2023-02-02T17:50:55.005Z,6.05
2023-02-02T17:53:22.923Z,6.00
2023-02-02T17:55:52.164Z,6.93
2023-02-02T17:58:19.923Z,6.80
2023-02-02T18:00:53.398Z,6.43
2023-02-02T18:03:27.127Z,10.07
2023-02-02T18:05:57.945Z,8.05
2023-02-02T18:08:25.537Z,7.30
2023-02-02T18:10:53.207Z,6.97
2023-02-02T18:13:22.682Z,7.50
2023-02-02T18:15:51.742Z,7.05
2023-02-02T18:18:19.530Z,7.28
2023-02-02T18:20:49.581Z,8.00
2023-02-02T18:23:18.962Z,7.65
2023-02-02T18:25:46.920Z,9.30
2023-02-02T18:28:17.257Z,8.77
2023-02-02T18:30:48.721Z,7.15
2023-02-02T18:33:20.418Z,8.27
2023-02-02T18:35:48.419Z,7.93
2023-02-02T18:38:16.358Z,7.40
2023-02-02T18:40:43.940Z,8.13
2023-02-02T18:43:15.820Z,7.70
2023-02-02T18:45:43.492Z,7.82
2023-02-02T18:48:11.095Z,7.40
2023-02-02T18:50:38.758Z,8.30
2023-02-02T18:53:06.776Z,8.10
2023-02-02T18:55:38.609Z,7.55
2023-02-02T18:58:10.435Z,8.48
2023-02-02T19:00:38.034Z,8.93
2023-02-02T19:03:05.658Z,8.27
2023-02-02T19:05:54.249Z,9.15
2023-02-02T19:08:31.505Z,9.50
2023-02-02T19:11:08.471Z,9.40
2023-02-02T19:13:42.059Z,8.93
2023-02-02T19:16:35.557Z,9.07
2023-02-02T19:19:28.787Z,9.57
2023-02-02T19:22:04.165Z,9.57
2023-02-02T19:24:41.170Z,9.65
2023-02-02T19:27:20.369Z,9.43
2023-02-02T19:29:58.211Z,9.43
2023-02-02T19:32:27.271Z,9.55
2023-02-02T19:35:01.791Z,9.93
2023-02-02T19:37:39.258Z,9.85
2023-02-02T19:40:10.099Z,10.00
2023-02-02T19:42:44.907Z,9.73
2023-02-02T19:45:24.665Z,10.57
2023-02-02T19:47:57.546Z,10.45
2023-02-02T19:50:32.565Z,9.63
2023-02-02T19:53:06.749Z,9.25
2023-02-02T19:55:36.693Z,9.40
2023-02-02T19:58:18.590Z,8.50
2023-02-02T20:00:50.646Z,9.48
2023-02-02T20:03:30.718Z,9.20
2023-02-02T20:05:58.969Z,9.30
2023-02-02T20:08:39.939Z,10.10
2023-02-02T20:11:38.009Z,10.35
2023-02-02T20:14:18.816Z,10.18
2023-02-02T20:16:53.003Z,11.25
2023-02-02T20:19:23.466Z,9.73
2023-02-02T20:21:53.256Z,10.50
2023-02-02T20:24:28.070Z,10.13
2023-02-02T20:27:01.985Z,10.10
2023-02-02T20:29:43.444Z,8.75
2023-02-02T20:32:41.284Z,9.90
2023-02-02T20:35:39.813Z,9.67
2023-02-02T20:38:22.941Z,9.82
2023-02-02T20:40:53.036Z,9.23
2023-02-02T20:43:23.802Z,9.98
2023-02-02T20:45:54.533Z,8.98
2023-02-02T20:48:22.506Z,9.63
2023-02-02T20:50:53.288Z,8.77
2023-02-02T20:53:23.644Z,9.93
2023-02-02T20:55:57.340Z,8.95
2023-02-02T20:58:25.568Z,8.88
2023-02-02T21:00:53.127Z,8.83
2023-02-02T21:03:20.849Z,8.52
2023-02-02T21:05:48.649Z,8.80
2023-02-02T21:08:17.115Z,8.35
2023-02-02T21:10:44.763Z,7.85
2023-02-02T21:13:12.471Z,7.87
2023-02-02T21:15:40.102Z,7.85
2023-02-02T21:18:07.746Z,8.23
2023-02-02T21:20:38.101Z,7.32
2023-02-02T21:23:06.309Z,8.30
2023-02-02T21:25:33.832Z,7.77
2023-02-02T21:28:02.564Z,8.02
2023-02-02T21:30:30.636Z,7.90
2023-02-02T21:32:59.065Z,7.55
2023-02-02T21:35:27.234Z,8.38
2023-02-02T21:37:57.940Z,7.63
2023-02-02T21:40:30.561Z,7.45
2023-02-02T21:43:13.774Z,7.65
2023-02-02T21:45:56.784Z,6.88
2023-02-02T21:48:33.127Z,6.22
2023-02-02T21:51:29.244Z,6.30
2023-02-02T21:53:58.219Z,6.45
2023-02-02T21:56:39.521Z,6.82
2023-02-02T21:59:17.234Z,6.68
2023-02-02T22:01:49.617Z,6.28
2023-02-02T22:04:24.884Z,6.23
2023-02-02T22:06:54.983Z,6.60
2023-02-02T22:09:28.051Z,6.43
2023-02-02T22:12:02.175Z,6.47
2023-02-02T22:14:36.221Z,6.32
2023-02-02T22:17:27.523Z,6.13
2023-02-02T22:20:01.347Z,6.10
2023-02-02T22:22:36.516Z,6.05
2023-02-02T22:25:12.406Z,5.57
2023-02-02T22:27:53.295Z,5.57
2023-02-02T22:30:44.351Z,5.80
2023-02-02T22:33:13.835Z,5.97
2023-02-02T22:35:42.945Z,5.75
2023-02-02T22:38:16.367Z,5.95
2023-02-02T22:40:44.997Z,5.60
2023-02-02T22:43:16.856Z,5.57
2023-02-02T22:45:45.512Z,5.45
2023-02-02T22:48:15.203Z,4.95
2023-02-02T22:50:45.343Z,4.88
2023-02-02T22:53:14.468Z,5.20
2023-02-02T22:55:44.780Z,4.80
2023-02-02T22:58:15.073Z,4.93
2023-02-02T23:00:42.886Z,4.88
2023-02-02T23:03:10.598Z,5.75
2023-02-02T23:05:38.679Z,4.82
2023-02-02T23:08:06.441Z,4.60
2023-02-02T23:10:36.693Z,5.00
2023-02-02T23:13:06.264Z,5.18
2023-02-02T23:15:34.170Z,4.28
2023-02-02T23:18:02.749Z,4.38
2023-02-02T23:20:33.439Z,4.40
2023-02-02T23:23:01.157Z,4.50
2023-02-02T23:25:32.075Z,4.22
2023-02-02T23:27:59.846Z,3.97
2023-02-02T23:30:27.919Z,7.45
2023-02-02T23:32:57.971Z,3.93
2023-02-02T23:35:25.831Z,4.30
2023-02-02T23:37:56.089Z,4.05
2023-02-02T23:40:23.809Z,3.90
2023-02-02T23:42:51.685Z,3.78
2023-02-02T23:45:24.914Z,3.57
2023-02-02T23:47:54.809Z,3.75
2023-02-02T23:50:22.880Z,3.67
2023-02-02T23:52:53.314Z,3.60
2023-02-02T23:55:21.193Z,3.58
2023-02-02T23:57:48.854Z,3.80
